Aviation Digital Data Service (ADDS)

Output produced by METARs form (0951 UTC 21 November 2017)
found at http://aviationweather.gov/adds/metars/
 
KDAN 210526Z 2106/2206 00000KT P6SM SCT250 
     FM211500 21007KT P6SM SCT040 BKN250 
     FM212100 20005KT P6SM BKN035 OVC250